sensor_id;sensor_type;location;lat;lon;timestamp;P1;durP1;ratioP1;P2;durP2;ratioP2
74102;SDS011;62853;46.166;3.640;2024-02-04T00:00:17;8.77;;;6.90;;
74102;SDS011;62853;46.166;3.640;2024-02-04T00:02:43;7.72;;;6.53;;
74102;SDS011;62853;46.166;3.640;2024-02-04T00:05:08;9.70;;;8.73;;
74102;SDS011;62853;46.166;3.640;2024-02-04T00:07:34;6.85;;;6.05;;
74102;SDS011;62853;46.166;3.640;2024-02-04T00:09:59;8.38;;;6.75;;
74102;SDS011;62853;46.166;3.640;2024-02-04T00:12:25;6.93;;;6.00;;
74102;SDS011;62853;46.166;3.640;2024-02-04T00:14:50;8.90;;;6.10;;
74102;SDS011;62853;46.166;3.640;2024-02-04T00:17:16;8.43;;;7.63;;
74102;SDS011;62853;46.166;3.640;2024-02-04T00:19:42;8.48;;;6.40;;
74102;SDS011;62853;46.166;3.640;2024-02-04T00:22:07;8.23;;;6.07;;
74102;SDS011;62853;46.166;3.640;2024-02-04T00:24:33;6.97;;;6.07;;
74102;SDS011;62853;46.166;3.640;2024-02-04T00:26:58;7.07;;;5.60;;
74102;SDS011;62853;46.166;3.640;2024-02-04T00:29:23;6.57;;;5.50;;
74102;SDS011;62853;46.166;3.640;2024-02-04T00:31:49;7.95;;;7.22;;
74102;SDS011;62853;46.166;3.640;2024-02-04T00:34:14;6.82;;;5.80;;
74102;SDS011;62853;46.166;3.640;2024-02-04T00:36:39;5.80;;;5.20;;
74102;SDS011;62853;46.166;3.640;2024-02-04T00:39:05;7.28;;;5.65;;
74102;SDS011;62853;46.166;3.640;2024-02-04T00:41:32;6.30;;;5.68;;
74102;SDS011;62853;46.166;3.640;2024-02-04T00:43:57;7.95;;;7.32;;
74102;SDS011;62853;46.166;3.640;2024-02-04T00:46:23;6.32;;;5.47;;
74102;SDS011;62853;46.166;3.640;2024-02-04T00:48:48;6.93;;;5.40;;
74102;SDS011;62853;46.166;3.640;2024-02-04T00:51:13;6.88;;;5.70;;
74102;SDS011;62853;46.166;3.640;2024-02-04T00:53:42;5.82;;;5.15;;
74102;SDS011;62853;46.166;3.640;2024-02-04T00:56:08;6.75;;;5.97;;
74102;SDS011;62853;46.166;3.640;2024-02-04T00:58:34;7.15;;;5.60;;
74102;SDS011;62853;46.166;3.640;2024-02-04T01:01:00;9.02;;;8.13;;
74102;SDS011;62853;46.166;3.640;2024-02-04T01:03:26;7.45;;;6.55;;
74102;SDS011;62853;46.166;3.640;2024-02-04T01:05:51;9.63;;;6.55;;
74102;SDS011;62853;46.166;3.640;2024-02-04T01:08:17;7.97;;;6.10;;
74102;SDS011;62853;46.166;3.640;2024-02-04T01:10:42;8.10;;;6.10;;
74102;SDS011;62853;46.166;3.640;2024-02-04T01:13:07;7.38;;;6.40;;
74102;SDS011;62853;46.166;3.640;2024-02-04T01:15:33;9.43;;;8.55;;
74102;SDS011;62853;46.166;3.640;2024-02-04T01:17:58;8.48;;;7.50;;
74102;SDS011;62853;46.166;3.640;2024-02-04T01:20:23;8.02;;;6.95;;
74102;SDS011;62853;46.166;3.640;2024-02-04T01:22:49;7.97;;;7.15;;
74102;SDS011;62853;46.166;3.640;2024-02-04T01:25:14;7.72;;;6.93;;
74102;SDS011;62853;46.166;3.640;2024-02-04T01:27:40;8.35;;;6.68;;
74102;SDS011;62853;46.166;3.640;2024-02-04T01:30:05;10.18;;;9.25;;
74102;SDS011;62853;46.166;3.640;2024-02-04T01:32:31;9.10;;;8.27;;
74102;SDS011;62853;46.166;3.640;2024-02-04T01:34:56;9.10;;;7.00;;
74102;SDS011;62853;46.166;3.640;2024-02-04T01:37:22;9.88;;;6.85;;
74102;SDS011;62853;46.166;3.640;2024-02-04T01:39:48;9.80;;;6.70;;
74102;SDS011;62853;46.166;3.640;2024-02-04T01:42:13;6.97;;;6.25;;
74102;SDS011;62853;46.166;3.640;2024-02-04T01:44:39;8.00;;;6.80;;
74102;SDS011;62853;46.166;3.640;2024-02-04T01:47:04;9.55;;;8.70;;
74102;SDS011;62853;46.166;3.640;2024-02-04T01:49:30;9.13;;;7.38;;
74102;SDS011;62853;46.166;3.640;2024-02-04T01:51:55;7.75;;;6.65;;
74102;SDS011;62853;46.166;3.640;2024-02-04T01:54:22;8.05;;;6.18;;
74102;SDS011;62853;46.166;3.640;2024-02-04T01:56:50;7.45;;;6.68;;
74102;SDS011;62853;46.166;3.640;2024-02-04T01:59:17;9.77;;;6.25;;
74102;SDS011;62853;46.166;3.640;2024-02-04T02:01:43;6.85;;;6.10;;
74102;SDS011;62853;46.166;3.640;2024-02-04T02:04:09;9.40;;;8.32;;
74102;SDS011;62853;46.166;3.640;2024-02-04T02:06:35;9.35;;;8.40;;
74102;SDS011;62853;46.166;3.640;2024-02-04T02:09:06;8.25;;;6.68;;
74102;SDS011;62853;46.166;3.640;2024-02-04T02:11:42;9.30;;;7.10;;
74102;SDS011;62853;46.166;3.640;2024-02-04T02:14:11;8.35;;;6.50;;
74102;SDS011;62853;46.166;3.640;2024-02-04T02:16:39;8.00;;;6.50;;
74102;SDS011;62853;46.166;3.640;2024-02-04T02:24:45;9.18;;;8.15;;
74102;SDS011;62853;46.166;3.640;2024-02-04T02:27:12;9.65;;;6.97;;
74102;SDS011;62853;46.166;3.640;2024-02-04T02:29:37;8.80;;;6.68;;
74102;SDS011;62853;46.166;3.640;2024-02-04T02:32:03;10.52;;;6.63;;
74102;SDS011;62853;46.166;3.640;2024-02-04T02:34:29;10.68;;;6.35;;
74102;SDS011;62853;46.166;3.640;2024-02-04T02:36:56;10.10;;;9.07;;
74102;SDS011;62853;46.166;3.640;2024-02-04T02:39:32;11.10;;;7.57;;
74102;SDS011;62853;46.166;3.640;2024-02-04T02:42:04;9.13;;;6.32;;
74102;SDS011;62853;46.166;3.640;2024-02-04T02:44:30;12.20;;;6.72;;
74102;SDS011;62853;46.166;3.640;2024-02-04T02:46:57;7.95;;;6.43;;
74102;SDS011;62853;46.166;3.640;2024-02-04T02:49:25;9.93;;;6.55;;
74102;SDS011;62853;46.166;3.640;2024-02-04T02:51:51;11.35;;;9.27;;
74102;SDS011;62853;46.166;3.640;2024-02-04T02:54:16;7.90;;;6.57;;
74102;SDS011;62853;46.166;3.640;2024-02-04T02:56:42;9.23;;;6.50;;
74102;SDS011;62853;46.166;3.640;2024-02-04T02:59:07;10.68;;;5.93;;
74102;SDS011;62853;46.166;3.640;2024-02-04T03:01:33;10.45;;;6.55;;
74102;SDS011;62853;46.166;3.640;2024-02-04T03:03:58;8.43;;;6.00;;
74102;SDS011;62853;46.166;3.640;2024-02-04T03:06:23;12.68;;;8.45;;
74102;SDS011;62853;46.166;3.640;2024-02-04T03:08:49;10.80;;;7.35;;
74102;SDS011;62853;46.166;3.640;2024-02-04T03:11:15;8.98;;;6.32;;
74102;SDS011;62853;46.166;3.640;2024-02-04T03:13:40;9.70;;;6.18;;
74102;SDS011;62853;46.166;3.640;2024-02-04T03:16:12;9.38;;;6.10;;
74102;SDS011;62853;46.166;3.640;2024-02-04T03:18:41;11.55;;;6.00;;
74102;SDS011;62853;46.166;3.640;2024-02-04T03:21:14;12.68;;;8.15;;
74102;SDS011;62853;46.166;3.640;2024-02-04T03:23:40;9.30;;;5.82;;
74102;SDS011;62853;46.166;3.640;2024-02-04T03:26:07;9.45;;;6.18;;
74102;SDS011;62853;46.166;3.640;2024-02-04T03:28:32;7.75;;;5.80;;
74102;SDS011;62853;46.166;3.640;2024-02-04T03:30:58;11.93;;;6.38;;
74102;SDS011;62853;46.166;3.640;2024-02-04T03:33:23;9.93;;;7.53;;
74102;SDS011;62853;46.166;3.640;2024-02-04T03:35:48;11.32;;;6.43;;
74102;SDS011;62853;46.166;3.640;2024-02-04T03:38:14;10.15;;;5.47;;
74102;SDS011;62853;46.166;3.640;2024-02-04T03:40:39;9.10;;;5.50;;
74102;SDS011;62853;46.166;3.640;2024-02-04T03:43:07;8.40;;;5.18;;
74102;SDS011;62853;46.166;3.640;2024-02-04T03:45:34;10.48;;;5.35;;
74102;SDS011;62853;46.166;3.640;2024-02-04T03:48:01;8.35;;;5.55;;
74102;SDS011;62853;46.166;3.640;2024-02-04T03:50:29;8.63;;;5.40;;
74102;SDS011;62853;46.166;3.640;2024-02-04T03:52:56;9.75;;;5.53;;
74102;SDS011;62853;46.166;3.640;2024-02-04T03:55:22;10.57;;;7.47;;
74102;SDS011;62853;46.166;3.640;2024-02-04T03:57:47;10.73;;;7.25;;
74102;SDS011;62853;46.166;3.640;2024-02-04T04:00:13;9.82;;;5.97;;
74102;SDS011;62853;46.166;3.640;2024-02-04T04:02:40;7.80;;;5.05;;
74102;SDS011;62853;46.166;3.640;2024-02-04T04:05:11;10.07;;;5.63;;
74102;SDS011;62853;46.166;3.640;2024-02-04T04:07:40;9.70;;;5.25;;
74102;SDS011;62853;46.166;3.640;2024-02-04T04:10:08;8.40;;;5.00;;
74102;SDS011;62853;46.166;3.640;2024-02-04T04:12:35;11.18;;;7.85;;
74102;SDS011;62853;46.166;3.640;2024-02-04T04:15:02;9.30;;;5.95;;
74102;SDS011;62853;46.166;3.640;2024-02-04T04:17:28;6.65;;;5.07;;
74102;SDS011;62853;46.166;3.640;2024-02-04T04:19:54;9.50;;;5.43;;
74102;SDS011;62853;46.166;3.640;2024-02-04T04:22:20;14.32;;;6.80;;
74102;SDS011;62853;46.166;3.640;2024-02-04T04:24:45;10.13;;;5.82;;
74102;SDS011;62853;46.166;3.640;2024-02-04T04:27:11;10.23;;;7.22;;
74102;SDS011;62853;46.166;3.640;2024-02-04T04:29:36;10.73;;;6.32;;
74102;SDS011;62853;46.166;3.640;2024-02-04T04:32:01;9.85;;;6.10;;
74102;SDS011;62853;46.166;3.640;2024-02-04T04:34:27;12.77;;;5.65;;
74102;SDS011;62853;46.166;3.640;2024-02-04T04:36:52;10.30;;;5.13;;
74102;SDS011;62853;46.166;3.640;2024-02-04T04:39:18;11.43;;;5.10;;
74102;SDS011;62853;46.166;3.640;2024-02-04T04:41:44;9.52;;;5.65;;
74102;SDS011;62853;46.166;3.640;2024-02-04T04:44:10;10.20;;;7.13;;
74102;SDS011;62853;46.166;3.640;2024-02-04T04:46:38;8.82;;;5.65;;
74102;SDS011;62853;46.166;3.640;2024-02-04T04:49:04;9.88;;;5.30;;
74102;SDS011;62853;46.166;3.640;2024-02-04T04:51:30;10.45;;;6.22;;
74102;SDS011;62853;46.166;3.640;2024-02-04T04:53:55;7.38;;;5.18;;
74102;SDS011;62853;46.166;3.640;2024-02-04T04:56:21;10.48;;;5.75;;
74102;SDS011;62853;46.166;3.640;2024-02-04T04:58:46;10.90;;;8.75;;
74102;SDS011;62853;46.166;3.640;2024-02-04T05:01:12;11.23;;;8.25;;
74102;SDS011;62853;46.166;3.640;2024-02-04T05:03:37;11.68;;;7.05;;
74102;SDS011;62853;46.166;3.640;2024-02-04T05:06:02;12.73;;;6.80;;
74102;SDS011;62853;46.166;3.640;2024-02-04T05:08:28;11.95;;;7.68;;
74102;SDS011;62853;46.166;3.640;2024-02-04T05:10:53;12.05;;;7.80;;
74102;SDS011;62853;46.166;3.640;2024-02-04T05:13:19;14.40;;;10.80;;
74102;SDS011;62853;46.166;3.640;2024-02-04T05:15:44;13.48;;;9.70;;
74102;SDS011;62853;46.166;3.640;2024-02-04T05:18:09;16.48;;;10.20;;
74102;SDS011;62853;46.166;3.640;2024-02-04T05:20:34;17.13;;;9.88;;
74102;SDS011;62853;46.166;3.640;2024-02-04T05:23:00;15.23;;;10.68;;
74102;SDS011;62853;46.166;3.640;2024-02-04T05:25:25;17.25;;;11.07;;
74102;SDS011;62853;46.166;3.640;2024-02-04T05:27:51;14.52;;;11.82;;
74102;SDS011;62853;46.166;3.640;2024-02-04T05:30:16;17.35;;;15.55;;
74102;SDS011;62853;46.166;3.640;2024-02-04T05:32:42;20.23;;;16.35;;
74102;SDS011;62853;46.166;3.640;2024-02-04T05:35:09;21.52;;;13.55;;
74102;SDS011;62853;46.166;3.640;2024-02-04T05:37:34;18.33;;;12.55;;
74102;SDS011;62853;46.166;3.640;2024-02-04T05:40:00;20.08;;;13.20;;
74102;SDS011;62853;46.166;3.640;2024-02-04T05:42:25;19.10;;;13.35;;
74102;SDS011;62853;46.166;3.640;2024-02-04T05:44:51;23.80;;;19.65;;
74102;SDS011;62853;46.166;3.640;2024-02-04T05:47:16;20.17;;;15.32;;
74102;SDS011;62853;46.166;3.640;2024-02-04T05:49:41;18.80;;;13.90;;
74102;SDS011;62853;46.166;3.640;2024-02-04T05:52:07;18.92;;;14.65;;
74102;SDS011;62853;46.166;3.640;2024-02-04T05:54:37;20.48;;;14.40;;
74102;SDS011;62853;46.166;3.640;2024-02-04T05:57:04;22.60;;;20.40;;
74102;SDS011;62853;46.166;3.640;2024-02-04T05:59:29;20.48;;;15.85;;
74102;SDS011;62853;46.166;3.640;2024-02-04T06:01:55;17.40;;;13.68;;
74102;SDS011;62853;46.166;3.640;2024-02-04T06:04:20;20.42;;;14.25;;
74102;SDS011;62853;46.166;3.640;2024-02-04T06:06:45;20.35;;;14.52;;
74102;SDS011;62853;46.166;3.640;2024-02-04T06:09:11;22.70;;;14.57;;
74102;SDS011;62853;46.166;3.640;2024-02-04T06:11:36;23.40;;;20.95;;
74102;SDS011;62853;46.166;3.640;2024-02-04T06:14:02;19.38;;;15.00;;
74102;SDS011;62853;46.166;3.640;2024-02-04T06:16:27;21.17;;;15.13;;
74102;SDS011;62853;46.166;3.640;2024-02-04T06:18:52;21.02;;;14.40;;
74102;SDS011;62853;46.166;3.640;2024-02-04T06:21:22;19.25;;;14.52;;
74102;SDS011;62853;46.166;3.640;2024-02-04T06:23:47;23.58;;;21.05;;
74102;SDS011;62853;46.166;3.640;2024-02-04T06:26:13;20.02;;;14.98;;
74102;SDS011;62853;46.166;3.640;2024-02-04T06:28:38;19.02;;;14.05;;
74102;SDS011;62853;46.166;3.640;2024-02-04T06:31:04;20.63;;;14.10;;
74102;SDS011;62853;46.166;3.640;2024-02-04T06:33:29;19.17;;;14.32;;
74102;SDS011;62853;46.166;3.640;2024-02-04T06:35:54;20.48;;;18.38;;
74102;SDS011;62853;46.166;3.640;2024-02-04T06:38:21;17.80;;;15.13;;
74102;SDS011;62853;46.166;3.640;2024-02-04T06:40:46;18.17;;;13.82;;
74102;SDS011;62853;46.166;3.640;2024-02-04T06:43:12;17.75;;;13.55;;
74102;SDS011;62853;46.166;3.640;2024-02-04T06:45:37;16.98;;;13.38;;
74102;SDS011;62853;46.166;3.640;2024-02-04T06:48:02;21.35;;;18.85;;
74102;SDS011;62853;46.166;3.640;2024-02-04T06:50:28;20.58;;;15.75;;
74102;SDS011;62853;46.166;3.640;2024-02-04T06:52:53;17.42;;;13.82;;
74102;SDS011;62853;46.166;3.640;2024-02-04T06:55:19;17.08;;;13.82;;
74102;SDS011;62853;46.166;3.640;2024-02-04T06:57:44;18.88;;;13.60;;
74102;SDS011;62853;46.166;3.640;2024-02-04T07:00:10;20.70;;;18.70;;
74102;SDS011;62853;46.166;3.640;2024-02-04T07:02:36;22.48;;;17.15;;
74102;SDS011;62853;46.166;3.640;2024-02-04T07:05:02;17.45;;;14.40;;
74102;SDS011;62853;46.166;3.640;2024-02-04T07:07:28;18.45;;;13.68;;
74102;SDS011;62853;46.166;3.640;2024-02-04T07:09:54;19.25;;;14.38;;
74102;SDS011;62853;46.166;3.640;2024-02-04T07:12:19;21.17;;;19.15;;
74102;SDS011;62853;46.166;3.640;2024-02-04T07:14:45;19.45;;;16.08;;
74102;SDS011;62853;46.166;3.640;2024-02-04T07:17:10;19.17;;;13.90;;
74102;SDS011;62853;46.166;3.640;2024-02-04T07:19:38;19.52;;;14.63;;
74102;SDS011;62853;46.166;3.640;2024-02-04T07:22:03;21.13;;;19.08;;
74102;SDS011;62853;46.166;3.640;2024-02-04T07:24:29;22.17;;;19.50;;
74102;SDS011;62853;46.166;3.640;2024-02-04T07:26:54;18.27;;;14.10;;
74102;SDS011;62853;46.166;3.640;2024-02-04T07:29:20;18.98;;;13.90;;
74102;SDS011;62853;46.166;3.640;2024-02-04T07:31:46;20.30;;;16.50;;
74102;SDS011;62853;46.166;3.640;2024-02-04T07:34:11;21.88;;;19.70;;
74102;SDS011;62853;46.166;3.640;2024-02-04T07:36:36;18.25;;;14.70;;
74102;SDS011;62853;46.166;3.640;2024-02-04T07:39:02;20.60;;;15.15;;
74102;SDS011;62853;46.166;3.640;2024-02-04T07:41:29;16.80;;;13.73;;
74102;SDS011;62853;46.166;3.640;2024-02-04T07:43:55;21.67;;;14.32;;
74102;SDS011;62853;46.166;3.640;2024-02-04T07:46:20;18.58;;;14.27;;
74102;SDS011;62853;46.166;3.640;2024-02-04T07:48:46;21.40;;;19.20;;
74102;SDS011;62853;46.166;3.640;2024-02-04T07:51:11;20.42;;;18.40;;
74102;SDS011;62853;46.166;3.640;2024-02-04T07:53:37;18.35;;;12.80;;
74102;SDS011;62853;46.166;3.640;2024-02-04T07:56:03;17.38;;;13.13;;
74102;SDS011;62853;46.166;3.640;2024-02-04T07:58:31;17.67;;;12.98;;
74102;SDS011;62853;46.166;3.640;2024-02-04T08:00:57;20.90;;;18.80;;
74102;SDS011;62853;46.166;3.640;2024-02-04T08:03:22;20.42;;;18.33;;
74102;SDS011;62853;46.166;3.640;2024-02-04T08:05:48;18.02;;;14.07;;
74102;SDS011;62853;46.166;3.640;2024-02-04T08:08:13;16.27;;;12.82;;
74102;SDS011;62853;46.166;3.640;2024-02-04T08:10:38;19.52;;;13.82;;
74102;SDS011;62853;46.166;3.640;2024-02-04T08:13:04;14.65;;;11.98;;
74102;SDS011;62853;46.166;3.640;2024-02-04T08:15:29;19.85;;;17.85;;
74102;SDS011;62853;46.166;3.640;2024-02-04T08:17:54;16.88;;;13.55;;
74102;SDS011;62853;46.166;3.640;2024-02-04T08:20:20;15.65;;;12.50;;
74102;SDS011;62853;46.166;3.640;2024-02-04T08:22:46;16.10;;;12.85;;
74102;SDS011;62853;46.166;3.640;2024-02-04T08:25:12;16.90;;;12.80;;
74102;SDS011;62853;46.166;3.640;2024-02-04T08:27:37;20.08;;;18.08;;
74102;SDS011;62853;46.166;3.640;2024-02-04T08:30:03;18.10;;;14.60;;
74102;SDS011;62853;46.166;3.640;2024-02-04T08:32:29;16.90;;;12.55;;
74102;SDS011;62853;46.166;3.640;2024-02-04T08:34:55;13.82;;;12.02;;
74102;SDS011;62853;46.166;3.640;2024-02-04T08:37:21;13.20;;;11.75;;
74102;SDS011;62853;46.166;3.640;2024-02-04T08:39:46;20.08;;;18.08;;
74102;SDS011;62853;46.166;3.640;2024-02-04T08:42:11;15.77;;;14.13;;
74102;SDS011;62853;46.166;3.640;2024-02-04T08:44:37;17.25;;;12.18;;
74102;SDS011;62853;46.166;3.640;2024-02-04T08:47:02;15.57;;;12.32;;
74102;SDS011;62853;46.166;3.640;2024-02-04T08:49:29;18.90;;;13.18;;
74102;SDS011;62853;46.166;3.640;2024-02-04T08:51:54;18.15;;;16.48;;
74102;SDS011;62853;46.166;3.640;2024-02-04T08:54:20;18.17;;;15.10;;
74102;SDS011;62853;46.166;3.640;2024-02-04T08:56:45;18.80;;;12.60;;
74102;SDS011;62853;46.166;3.640;2024-02-04T08:59:11;16.63;;;12.48;;
74102;SDS011;62853;46.166;3.640;2024-02-04T09:01:36;16.95;;;12.32;;
74102;SDS011;62853;46.166;3.640;2024-02-04T09:04:02;18.67;;;16.88;;
74102;SDS011;62853;46.166;3.640;2024-02-04T09:06:27;15.25;;;13.50;;
74102;SDS011;62853;46.166;3.640;2024-02-04T09:08:52;16.95;;;12.40;;
74102;SDS011;62853;46.166;3.640;2024-02-04T09:11:18;15.95;;;12.38;;
74102;SDS011;62853;46.166;3.640;2024-02-04T09:13:45;16.52;;;12.70;;
74102;SDS011;62853;46.166;3.640;2024-02-04T09:16:11;18.00;;;16.38;;
74102;SDS011;62853;46.166;3.640;2024-02-04T09:18:36;17.10;;;13.45;;
74102;SDS011;62853;46.166;3.640;2024-02-04T09:21:02;16.00;;;12.20;;
74102;SDS011;62853;46.166;3.640;2024-02-04T09:23:27;14.00;;;11.65;;
74102;SDS011;62853;46.166;3.640;2024-02-04T09:25:53;18.50;;;16.80;;
74102;SDS011;62853;46.166;3.640;2024-02-04T09:28:18;17.45;;;15.80;;
74102;SDS011;62853;46.166;3.640;2024-02-04T09:30:43;17.35;;;13.60;;
74102;SDS011;62853;46.166;3.640;2024-02-04T09:33:09;15.35;;;11.85;;
74102;SDS011;62853;46.166;3.640;2024-02-04T09:35:34;15.55;;;12.35;;
74102;SDS011;62853;46.166;3.640;2024-02-04T09:38:00;14.82;;;11.32;;
74102;SDS011;62853;46.166;3.640;2024-02-04T09:40:25;17.92;;;16.33;;
74102;SDS011;62853;46.166;3.640;2024-02-04T09:42:50;15.38;;;12.63;;
74102;SDS011;62853;46.166;3.640;2024-02-04T09:45:17;13.80;;;11.00;;
74102;SDS011;62853;46.166;3.640;2024-02-04T09:47:43;17.65;;;12.70;;
74102;SDS011;62853;46.166;3.640;2024-02-04T09:50:10;18.02;;;16.25;;
74102;SDS011;62853;46.166;3.640;2024-02-04T09:52:37;16.33;;;14.63;;
74102;SDS011;62853;46.166;3.640;2024-02-04T09:55:06;14.20;;;11.05;;
74102;SDS011;62853;46.166;3.640;2024-02-04T09:57:33;14.88;;;11.15;;
74102;SDS011;62853;46.166;3.640;2024-02-04T09:59:59;14.07;;;10.43;;
74102;SDS011;62853;46.166;3.640;2024-02-04T10:02:33;17.25;;;15.65;;
74102;SDS011;62853;46.166;3.640;2024-02-04T10:04:59;16.45;;;11.07;;
74102;SDS011;62853;46.166;3.640;2024-02-04T10:07:24;12.48;;;10.07;;
74102;SDS011;62853;46.166;3.640;2024-02-04T10:09:50;14.90;;;10.65;;
74102;SDS011;62853;46.166;3.640;2024-02-04T10:12:16;13.63;;;10.00;;
74102;SDS011;62853;46.166;3.640;2024-02-04T10:14:42;15.55;;;14.15;;
74102;SDS011;62853;46.166;3.640;2024-02-04T10:17:07;11.38;;;9.15;;
74102;SDS011;62853;46.166;3.640;2024-02-04T10:19:33;15.02;;;10.30;;
74102;SDS011;62853;46.166;3.640;2024-02-04T10:21:59;11.18;;;9.38;;
74102;SDS011;62853;46.166;3.640;2024-02-04T10:24:25;13.52;;;12.30;;
74102;SDS011;62853;46.166;3.640;2024-02-04T10:26:50;11.75;;;10.07;;
74102;SDS011;62853;46.166;3.640;2024-02-04T10:29:17;13.38;;;9.18;;
74102;SDS011;62853;46.166;3.640;2024-02-04T10:31:43;10.20;;;8.77;;
74102;SDS011;62853;46.166;3.640;2024-02-04T10:34:08;9.88;;;8.70;;
74102;SDS011;62853;46.166;3.640;2024-02-04T10:36:34;13.25;;;12.05;;
74102;SDS011;62853;46.166;3.640;2024-02-04T10:38:59;13.23;;;11.82;;
74102;SDS011;62853;46.166;3.640;2024-02-04T10:41:24;12.93;;;9.43;;
74102;SDS011;62853;46.166;3.640;2024-02-04T10:43:53;9.35;;;7.90;;
74102;SDS011;62853;46.166;3.640;2024-02-04T10:46:19;11.70;;;8.25;;
74102;SDS011;62853;46.166;3.640;2024-02-04T10:48:48;13.18;;;9.48;;
74102;SDS011;62853;46.166;3.640;2024-02-04T10:51:20;13.77;;;12.48;;
74102;SDS011;62853;46.166;3.640;2024-02-04T10:53:50;12.25;;;9.35;;
74102;SDS011;62853;46.166;3.640;2024-02-04T10:56:19;9.48;;;8.02;;
74102;SDS011;62853;46.166;3.640;2024-02-04T10:58:48;10.48;;;7.85;;
74102;SDS011;62853;46.166;3.640;2024-02-04T11:01:14;12.32;;;11.10;;
74102;SDS011;62853;46.166;3.640;2024-02-04T11:03:40;11.80;;;10.77;;
74102;SDS011;62853;46.166;3.640;2024-02-04T11:06:07;10.48;;;8.25;;
74102;SDS011;62853;46.166;3.640;2024-02-04T11:08:33;9.10;;;7.65;;
74102;SDS011;62853;46.166;3.640;2024-02-04T11:10:59;9.00;;;7.72;;
74102;SDS011;62853;46.166;3.640;2024-02-04T11:13:25;10.65;;;7.60;;
74102;SDS011;62853;46.166;3.640;2024-02-04T11:15:52;11.10;;;10.00;;
74102;SDS011;62853;46.166;3.640;2024-02-04T11:18:24;10.23;;;9.23;;
74102;SDS011;62853;46.166;3.640;2024-02-04T11:21:08;9.80;;;7.60;;
74102;SDS011;62853;46.166;3.640;2024-02-04T11:26:31;11.20;;;10.02;;
74102;SDS011;62853;46.166;3.640;2024-02-04T11:28:57;9.35;;;8.27;;
74102;SDS011;62853;46.166;3.640;2024-02-04T11:31:23;9.65;;;6.72;;
74102;SDS011;62853;46.166;3.640;2024-02-04T11:33:50;9.35;;;6.80;;
74102;SDS011;62853;46.166;3.640;2024-02-04T11:36:16;9.15;;;6.35;;
74102;SDS011;62853;46.166;3.640;2024-02-04T11:38:43;11.82;;;9.52;;
74102;SDS011;62853;46.166;3.640;2024-02-04T11:41:20;9.52;;;7.43;;
74102;SDS011;62853;46.166;3.640;2024-02-04T11:43:46;9.02;;;6.75;;
74102;SDS011;62853;46.166;3.640;2024-02-04T11:46:18;8.63;;;6.35;;
74102;SDS011;62853;46.166;3.640;2024-02-04T11:48:50;9.03;;;7.00;;
74102;SDS011;62853;46.166;3.640;2024-02-04T11:51:18;10.20;;;8.90;;
74102;SDS011;62853;46.166;3.640;2024-02-04T11:53:46;10.00;;;7.47;;
74102;SDS011;62853;46.166;3.640;2024-02-04T11:56:11;8.15;;;6.45;;
74102;SDS011;62853;46.166;3.640;2024-02-04T11:58:38;8.02;;;6.00;;
74102;SDS011;62853;46.166;3.640;2024-02-04T12:01:05;8.50;;;6.32;;
74102;SDS011;62853;46.166;3.640;2024-02-04T12:03:35;8.75;;;8.02;;
74102;SDS011;62853;46.166;3.640;2024-02-04T12:06:02;9.23;;;8.02;;
74102;SDS011;62853;46.166;3.640;2024-02-04T12:08:29;8.75;;;7.50;;
74102;SDS011;62853;46.166;3.640;2024-02-04T12:10:57;8.45;;;5.95;;
74102;SDS011;62853;46.166;3.640;2024-02-04T12:13:23;6.53;;;5.80;;
74102;SDS011;62853;46.166;3.640;2024-02-04T12:15:49;7.93;;;5.30;;
74102;SDS011;62853;46.166;3.640;2024-02-04T12:18:15;8.48;;;7.68;;
74102;SDS011;62853;46.166;3.640;2024-02-04T12:20:45;9.60;;;8.10;;
74102;SDS011;62853;46.166;3.640;2024-02-04T12:23:12;9.43;;;7.32;;
74102;SDS011;62853;46.166;3.640;2024-02-04T12:25:37;6.20;;;5.43;;
74102;SDS011;62853;46.166;3.640;2024-02-04T12:28:03;6.45;;;5.35;;
74102;SDS011;62853;46.166;3.640;2024-02-04T12:30:30;9.00;;;5.85;;
74102;SDS011;62853;46.166;3.640;2024-02-04T12:33:02;8.60;;;7.70;;
74102;SDS011;62853;46.166;3.640;2024-02-04T12:35:32;8.43;;;7.45;;
74102;SDS011;62853;46.166;3.640;2024-02-04T12:37:58;7.82;;;5.40;;
74102;SDS011;62853;46.166;3.640;2024-02-04T12:40:25;8.85;;;6.20;;
74102;SDS011;62853;46.166;3.640;2024-02-04T12:42:58;6.90;;;5.47;;
74102;SDS011;62853;46.166;3.640;2024-02-04T12:45:25;8.25;;;7.45;;
74102;SDS011;62853;46.166;3.640;2024-02-04T12:47:51;8.45;;;6.78;;
74102;SDS011;62853;46.166;3.640;2024-02-04T12:50:17;7.00;;;5.07;;
74102;SDS011;62853;46.166;3.640;2024-02-04T12:52:44;8.98;;;5.50;;
74102;SDS011;62853;46.166;3.640;2024-02-04T12:58:04;7.15;;;6.40;;
74102;SDS011;62853;46.166;3.640;2024-02-04T13:02:57;6.03;;;5.30;;
74102;SDS011;62853;46.166;3.640;2024-02-04T13:05:23;5.75;;;4.60;;
74102;SDS011;62853;46.166;3.640;2024-02-04T13:07:54;7.55;;;5.07;;
74102;SDS011;62853;46.166;3.640;2024-02-04T13:10:23;5.70;;;4.68;;
74102;SDS011;62853;46.166;3.640;2024-02-04T13:13:00;6.93;;;6.32;;
74102;SDS011;62853;46.166;3.640;2024-02-04T13:15:31;7.03;;;6.32;;
74102;SDS011;62853;46.166;3.640;2024-02-04T13:17:57;7.03;;;5.07;;
74102;SDS011;62853;46.166;3.640;2024-02-04T13:20:24;5.55;;;4.43;;
74102;SDS011;62853;46.166;3.640;2024-02-04T13:22:50;5.00;;;4.50;;
74102;SDS011;62853;46.166;3.640;2024-02-04T13:25:15;7.30;;;5.80;;
74102;SDS011;62853;46.166;3.640;2024-02-04T13:27:41;7.38;;;6.32;;
74102;SDS011;62853;46.166;3.640;2024-02-04T13:30:07;6.57;;;5.85;;
74102;SDS011;62853;46.166;3.640;2024-02-04T13:32:37;6.60;;;5.20;;
74102;SDS011;62853;46.166;3.640;2024-02-04T13:35:04;6.35;;;4.60;;
74102;SDS011;62853;46.166;3.640;2024-02-04T13:37:31;5.68;;;4.90;;
74102;SDS011;62853;46.166;3.640;2024-02-04T13:39:56;6.63;;;5.90;;
74102;SDS011;62853;46.166;3.640;2024-02-04T13:42:21;7.10;;;5.65;;
74102;SDS011;62853;46.166;3.640;2024-02-04T13:44:47;7.70;;;5.88;;
74102;SDS011;62853;46.166;3.640;2024-02-04T13:47:12;5.40;;;4.63;;
74102;SDS011;62853;46.166;3.640;2024-02-04T13:49:37;5.18;;;4.68;;
74102;SDS011;62853;46.166;3.640;2024-02-04T13:52:03;5.78;;;4.70;;
74102;SDS011;62853;46.166;3.640;2024-02-04T13:54:28;7.30;;;5.65;;
74102;SDS011;62853;46.166;3.640;2024-02-04T13:56:54;6.10;;;5.43;;
74102;SDS011;62853;46.166;3.640;2024-02-04T13:59:19;9.63;;;5.70;;
74102;SDS011;62853;46.166;3.640;2024-02-04T14:01:44;5.90;;;5.00;;
74102;SDS011;62853;46.166;3.640;2024-02-04T14:04:10;6.00;;;4.57;;
74102;SDS011;62853;46.166;3.640;2024-02-04T14:06:35;5.60;;;4.88;;
74102;SDS011;62853;46.166;3.640;2024-02-04T14:09:01;7.18;;;5.68;;
74102;SDS011;62853;46.166;3.640;2024-02-04T14:11:26;7.20;;;5.40;;
74102;SDS011;62853;46.166;3.640;2024-02-04T14:13:51;5.55;;;5.07;;
74102;SDS011;62853;46.166;3.640;2024-02-04T14:16:17;5.35;;;4.47;;
74102;SDS011;62853;46.166;3.640;2024-02-04T14:18:42;6.13;;;4.55;;
74102;SDS011;62853;46.166;3.640;2024-02-04T14:21:11;4.60;;;4.18;;
74102;SDS011;62853;46.166;3.640;2024-02-04T14:23:38;6.72;;;6.00;;
74102;SDS011;62853;46.166;3.640;2024-02-04T14:26:04;5.30;;;4.80;;
74102;SDS011;62853;46.166;3.640;2024-02-04T14:28:33;5.70;;;5.13;;
74102;SDS011;62853;46.166;3.640;2024-02-04T14:31:06;6.47;;;4.55;;
74102;SDS011;62853;46.166;3.640;2024-02-04T14:33:31;6.10;;;4.30;;
74102;SDS011;62853;46.166;3.640;2024-02-04T14:35:57;5.88;;;3.90;;
74102;SDS011;62853;46.166;3.640;2024-02-04T14:38:22;6.50;;;5.10;;
74102;SDS011;62853;46.166;3.640;2024-02-04T14:40:48;4.85;;;4.05;;
74102;SDS011;62853;46.166;3.640;2024-02-04T14:43:13;5.13;;;4.15;;